Portada
METAR-TAF:

METAR-TAF

Aeroports :

Hangzhou, Xina

latitud: 30-14N, longitud: 120-10E, altitud: 43 m

Observació

L'informe es va fer fa 21 minuts, a les 03:30 UTC
Vent 12 kt del Nord-Est, variant entre Nord i Est/Nord-Est
Temperatura 20°C
Humitat 49%
Pressió 1030 hPa
Visibilitat 10 km o més
Cel ennuvolat a una alçada de 2600 ft

METAR: ZSHC 150330Z 04006MPS 360V060 9999 BKN026 20/09 Q1030 NOSIG

Hora: 11:51 (03:51 UTC)

Pronòstic

L'informe es va fer fa 8 hores i 28 minuts, a les 19:23 UTC
Pronòstic vàlid del 15 a les 00 UTC al 15 a les 24 UTC
Vent 8 kt del Nord/Nord-Est
Visibilitat: 3000 m
Núvols disperses a una alçada de 3000 ft
boirina

TAF: ZSHC 141923Z 1500/1524 03004MPS 3000 BR SCT030 TX22/1506Z TN14/1521Z

Observacions i pronòstics meteorològics de més de 4000 aeroports (METAR i TAF).

Les estacions disponibles són els punts grocs i vermells al mapa.

Posi el ratolí al punt desitjat per veure el nom de l'estació.

Feu clic per veure les observacions i els pronòstics meteorològics.

Per canviar el mapa: feu clic els botons verds amb una creu de color negre per apropar; al botó verd amb un guió per allunyar la imatge; o en les fletxes verdes per a mapes adjacents.


METAR-TAF: